Time;durP1;ratioP1;P1;durP2;ratioP2;P2;SDS_P1;SDS_P2;PMS_P1;PMS_P2;Temp;Humidity;BMP_temperature;BMP_pressure;BME280_temperature;BME280_humidity;BME280_pressure;Samples;Min_cycle;Max_cycle;Signal;HPM_P1;HPM_P2
2022/10/18 00:02:20;;;;;;;34.18;21.80;;;;;;;6.59;73.35;102622.66;1819588;76;21006;-85
2022/10/18 00:04:47;;;;;;;25.85;17.17;;;;;;;6.55;73.36;102618.36;1819444;76;21408;-85
2022/10/18 00:07:14;;;;;;;32.25;18.90;;;;;;;6.51;73.42;102615.80;1818606;76;20972;-85
2022/10/18 00:09:41;;;;;;;26.05;19.52;;;;;;;6.47;73.56;102621.92;1819421;76;21087;-83
2022/10/18 00:12:09;;;;;;;29.50;21.45;;;;;;;6.44;73.64;102627.59;1817502;79;20928;-85
2022/10/18 00:14:37;;;;;;;28.85;20.72;;;;;;;6.42;73.68;102624.17;1817203;79;20967;-85
2022/10/18 00:17:05;;;;;;;29.30;19.90;;;;;;;6.39;73.79;102626.78;1817278;79;20967;-86
2022/10/18 00:19:32;;;;;;;31.52;19.70;;;;;;;6.37;74.03;102629.84;1817151;79;20880;-85
2022/10/18 00:22:00;;;;;;;31.77;19.52;;;;;;;6.35;74.42;102630.30;1799040;78;20915;-84
2022/10/18 00:24:27;;;;;;;27.80;21.02;;;;;;;6.34;74.79;102626.42;1791159;79;20884;-83
2022/10/18 00:26:53;;;;;;;32.90;20.02;;;;;;;6.34;74.89;102628.58;1790762;77;21476;-86
2022/10/18 00:29:20;;;;;;;30.65;20.45;;;;;;;6.31;74.45;102616.86;1789012;79;20896;-84
2022/10/18 00:31:47;;;;;;;30.62;21.48;;;;;;;6.30;73.94;102616.91;1789029;79;20944;-85
2022/10/18 00:34:15;;;;;;;30.55;21.07;;;;;;;6.25;73.62;102615.65;1788863;79;21783;-84
2022/10/18 00:36:43;;;;;;;31.57;21.52;;;;;;;6.19;73.46;102612.65;1788995;79;20884;-82
2022/10/18 00:39:14;;;;;;;29.87;21.52;;;;;;;6.11;73.26;102611.84;1788786;79;20881;-85
2022/10/18 00:41:42;;;;;;;34.23;21.35;;;;;;;6.03;73.27;102605.01;1789598;79;20884;-85
2022/10/18 00:44:18;;;;;;;33.48;20.85;;;;;;;5.93;73.27;102606.78;1791572;77;20923;-85
2022/10/18 00:46:46;;;;;;;31.85;20.95;;;;;;;5.85;73.55;102605.55;1791304;77;21122;-85
2022/10/18 00:49:19;;;;;;;28.77;19.98;;;;;;;5.80;73.53;102609.50;1791253;77;20865;-85
2022/10/18 00:51:54;;;;;;;30.32;21.33;;;;;;;5.74;73.60;102605.64;1791138;77;20912;-83
2022/10/18 00:54:22;;;;;;;34.90;22.80;;;;;;;5.68;73.64;102603.08;1791272;77;20943;-84
2022/10/18 00:56:51;;;;;;;32.35;22.30;;;;;;;5.65;73.78;102597.91;1779892;77;21004;-84
2022/10/18 00:59:17;;;;;;;30.77;22.52;;;;;;;5.65;73.92;102600.92;1791121;77;21252;-84
2022/10/18 01:01:44;;;;;;;37.58;22.98;;;;;;;5.64;74.03;102592.70;1790997;77;20880;-84
2022/10/18 01:04:13;;;;;;;39.70;24.12;;;;;;;5.64;73.95;102592.70;1791367;77;20860;-84
2022/10/18 01:07:09;;;;;;;42.17;24.90;;;;;;;5.63;73.77;102589.69;1780385;79;20955;-84
2022/10/18 01:10:03;;;;;;;47.45;26.97;;;;;;;5.57;73.92;102586.67;1790329;80;20932;-84
2022/10/18 01:12:45;;;;;;;45.63;26.30;;;;;;;5.54;73.89;102582.81;1789685;80;22283;-83
2022/10/18 01:15:20;;;;;;;46.08;27.37;;;;;;;5.50;73.91;102579.80;1789388;79;20852;-83
2022/10/18 01:18:12;;;;;;;39.38;24.63;;;;;;;5.45;74.08;102573.73;1789218;78;20975;-85
2022/10/18 01:21:12;;;;;;;48.68;26.52;;;;;;;5.42;74.28;102569.42;1789298;79;20920;-84
2022/10/18 01:24:05;;;;;;;45.85;26.65;;;;;;;5.40;74.59;102572.47;1789360;79;20888;-84
2022/10/18 01:26:56;;;;;;;45.20;28.55;;;;;;;5.41;74.71;102566.41;1789639;78;21115;-85
2022/10/18 01:30:14;;;;;;;45.63;27.67;;;;;;;5.43;74.93;102559.91;1770344;80;20880;-83
2022/10/18 01:32:49;;;;;;;54.27;30.20;;;;;;;5.45;74.86;102563.33;1789782;79;20935;-83
2022/10/18 01:35:20;;;;;;;54.70;29.67;;;;;;;5.47;74.95;102566.78;1789615;78;20928;-84
2022/10/18 01:37:48;;;;;;;53.78;29.32;;;;;;;5.48;74.92;102569.84;1791082;79;20912;-82
2022/10/18 01:40:17;;;;;;;51.18;30.70;;;;;;;5.48;74.86;102573.30;1791719;77;21188;-84
2022/10/18 01:42:46;;;;;;;36.05;24.35;;;;;;;5.48;74.93;102569.39;1789609;79;20892;-84
2022/10/18 01:45:14;;;;;;;38.63;24.15;;;;;;;5.47;75.11;102567.67;1789025;80;20943;-84
2022/10/18 01:47:43;;;;;;;36.48;23.85;;;;;;;5.47;75.30;102565.48;1789183;79;20919;-84
2022/10/18 01:50:10;;;;;;;32.70;22.22;;;;;;;5.47;75.73;102562.47;1789415;79;21318;-84
2022/10/18 01:52:48;;;;;;;33.38;19.42;;;;;;;5.49;76.06;102558.13;1789305;79;21362;-85
2022/10/18 01:55:15;;;;;;;37.25;22.45;;;;;;;5.52;76.38;102556.78;1788850;79;20963;-85
2022/10/18 01:57:53;;;;;;;29.50;17.52;;;;;;;5.57;76.69;102558.05;1788936;80;21109;-84
2022/10/18 02:00:27;;;;;;;27.55;18.37;;;;;;;5.64;76.92;102560.16;1787882;79;20935;-85
2022/10/18 02:03:04;;;;;;;25.02;16.87;;;;;;;5.71;77.13;102544.91;1788836;79;20923;-85
2022/10/18 02:05:57;;;;;;;29.77;16.67;;;;;;;5.79;77.33;102550.92;1789105;79;22054;-86
2022/10/18 02:08:38;;;;;;;24.05;16.30;;;;;;;5.88;77.45;102549.98;1788586;79;20920;-84
2022/10/18 02:11:11;;;;;;;25.77;16.45;;;;;;;5.97;77.40;102549.92;1789268;78;20908;-82
2022/10/18 02:13:42;;;;;;;27.25;19.62;;;;;;;6.05;77.29;102552.44;1791576;77;21241;-83
2022/10/18 02:16:13;;;;;;;26.35;17.75;;;;;;;6.10;77.08;102549.38;1791347;77;20959;-84
2022/10/18 02:18:56;;;;;;;31.62;22.10;;;;;;;6.13;76.90;102548.87;1791640;77;21198;-84
2022/10/18 02:21:23;;;;;;;35.15;22.85;;;;;;;6.16;76.65;102554.53;1787336;77;21094;-85
2022/10/18 02:23:49;;;;;;;27.17;19.02;;;;;;;6.17;76.08;102552.33;1791421;77;20927;-84
2022/10/18 02:26:16;;;;;;;30.62;22.25;;;;;;;6.15;75.75;102547.12;1791209;77;20908;-86
2022/10/18 02:28:44;;;;;;;26.25;19.15;;;;;;;6.15;75.63;102555.39;1791082;77;20849;-84
2022/10/18 02:31:34;;;;;;;25.08;18.55;;;;;;;6.15;75.51;102550.17;1791241;77;21084;-85
2022/10/18 02:34:28;;;;;;;28.60;18.35;;;;;;;6.17;75.48;102548.42;1791442;77;20982;-84
2022/10/18 02:36:59;;;;;;;59.00;37.85;;;;;;;6.17;75.34;102547.12;1791400;77;21076;-84
2022/10/18 02:39:48;;;;;;;26.68;18.02;;;;;;;6.19;75.37;102552.73;1792133;77;21620;-85
2022/10/18 02:42:14;;;;;;;35.85;25.50;;;;;;;6.20;75.26;102544.47;1790099;77;20881;-86
2022/10/18 02:44:41;;;;;;;26.90;18.40;;;;;;;6.20;75.24;102549.68;1788607;79;21118;-85
2022/10/18 02:47:10;;;;;;;26.20;18.48;;;;;;;6.18;75.28;102545.81;1788446;79;21432;-85
2022/10/18 02:49:36;;;;;;;27.25;18.23;;;;;;;6.19;75.34;102546.66;1790170;79;20900;-83
2022/10/18 02:52:03;;;;;;;25.17;18.05;;;;;;;6.18;75.44;102546.23;1790626;77;20975;-84
2022/10/18 02:54:30;;;;;;;28.45;17.23;;;;;;;6.19;75.52;102542.76;1788593;78;20872;-85
2022/10/18 02:56:58;;;;;;;21.05;16.12;;;;;;;6.20;75.65;102545.77;1788561;79;21120;-84
2022/10/18 02:59:25;;;;;;;22.05;16.80;;;;;;;6.23;75.60;102550.97;1788314;78;20877;-86
2022/10/18 03:01:51;;;;;;;31.35;21.60;;;;;;;6.25;75.52;102548.33;1788312;78;20911;-84
2022/10/18 03:04:18;;;;;;;28.57;21.00;;;;;;;6.27;75.41;102555.69;1788315;78;21389;-84
2022/10/18 03:06:46;;;;;;;28.62;19.15;;;;;;;6.28;75.27;102553.52;1788368;79;20845;-85
2022/10/18 03:09:13;;;;;;;26.35;18.55;;;;;;;6.27;75.24;102553.08;1788398;79;21140;-85
2022/10/18 03:11:40;;;;;;;25.08;17.55;;;;;;;6.24;75.15;102547.47;1788397;79;20916;-85
2022/10/18 03:14:07;;;;;;;23.77;18.12;;;;;;;6.22;75.10;102540.11;1788615;79;20888;-85
2022/10/18 03:16:35;;;;;;;27.60;16.95;;;;;;;6.21;74.97;102544.46;1788637;79;21273;-85
2022/10/18 03:19:02;;;;;;;31.57;22.95;;;;;;;6.18;74.87;102538.41;1778081;79;20920;-86
2022/10/18 03:21:28;;;;;;;47.58;32.70;;;;;;;6.15;74.77;102539.75;1790227;79;21213;-84
2022/10/18 03:23:55;;;;;;;26.30;18.98;;;;;;;6.12;74.77;102539.80;1816725;78;21255;-84
2022/10/18 03:26:23;;;;;;;27.32;17.90;;;;;;;6.10;75.02;102542.41;1818610;76;20880;-85
2022/10/18 03:28:50;;;;;;;21.42;16.12;;;;;;;6.09;75.22;102542.00;1819711;76;20903;-85
2022/10/18 03:31:17;;;;;;;25.50;17.35;;;;;;;6.07;75.31;102537.25;1818709;76;21370;-85
2022/10/18 03:33:44;;;;;;;28.98;18.45;;;;;;;6.09;75.17;102537.20;1818737;76;21271;-88
2022/10/18 03:36:11;;;;;;;24.35;17.75;;;;;;;6.07;74.96;102534.64;1818537;77;20919;-87
2022/10/18 03:38:38;;;;;;;24.00;17.15;;;;;;;6.06;74.76;102528.14;1816733;79;20935;-84
2022/10/18 03:41:05;;;;;;;33.85;20.57;;;;;;;6.01;74.69;102526.44;1816594;79;20964;-84
2022/10/18 03:43:33;;;;;;;28.83;17.85;;;;;;;5.98;74.78;102523.88;1816658;79;20880;-85
2022/10/18 03:46:00;;;;;;;22.42;15.78;;;;;;;5.95;74.87;102516.08;1816644;79;21116;-86
2022/10/18 03:48:27;;;;;;;29.32;19.50;;;;;;;5.93;74.89;102516.94;1816591;79;20861;-86
2022/10/18 03:50:53;;;;;;;31.23;22.27;;;;;;;5.90;74.95;102515.23;1817120;79;20891;-85
2022/10/18 03:53:20;;;;;;;28.55;17.57;;;;;;;5.89;75.00;102513.53;1816541;79;21349;-84
2022/10/18 03:55:52;;;;;;;30.88;20.88;;;;;;;5.92;75.05;102508.27;1818208;79;20845;-85
2022/10/18 03:58:19;;;;;;;34.45;22.93;;;;;;;5.92;75.00;102499.61;1817706;79;21214;-84
2022/10/18 04:00:53;;;;;;;28.42;18.62;;;;;;;5.92;74.98;102507.42;1818274;79;20929;-85
2022/10/18 04:03:21;;;;;;;27.82;20.77;;;;;;;5.95;74.94;102500.90;1819351;76;20903;-85
2022/10/18 04:05:48;;;;;;;33.45;20.40;;;;;;;5.96;74.72;102497.44;1816690;79;21428;-88
2022/10/18 04:08:15;;;;;;;35.83;21.37;;;;;;;5.95;74.52;102493.09;1816606;79;20963;-85
2022/10/18 04:10:43;;;;;;;34.13;20.12;;;;;;;5.95;74.34;102502.20;1816688;79;21318;-86
2022/10/18 04:13:10;;;;;;;33.83;21.50;;;;;;;5.93;74.31;102492.20;1816653;79;20928;-86
2022/10/18 04:15:37;;;;;;;38.23;22.67;;;;;;;5.91;74.36;102484.84;1816579;79;20908;-85
2022/10/18 04:18:05;;;;;;;41.00;26.60;;;;;;;5.92;74.51;102491.80;1816645;79;20967;-86
2022/10/18 04:20:32;;;;;;;32.33;21.35;;;;;;;5.93;74.62;102489.60;1816941;79;20915;-88
2022/10/18 04:23:00;;;;;;;33.48;19.05;;;;;;;5.96;74.65;102486.57;1801123;79;21640;-84
2022/10/18 04:25:29;;;;;;;27.58;17.05;;;;;;;6.00;74.62;102484.77;1789136;79;20925;-86
2022/10/18 04:27:55;;;;;;;24.55;15.75;;;;;;;6.05;74.53;102487.33;1789115;79;20959;-85
2022/10/18 04:30:22;;;;;;;24.95;15.85;;;;;;;6.07;74.40;102490.78;1789582;79;20892;-87
2022/10/18 04:32:49;;;;;;;23.00;14.75;;;;;;;6.10;74.31;102496.83;1788739;79;20924;-86
2022/10/18 04:35:16;;;;;;;26.00;16.00;;;;;;;6.13;74.14;102495.93;1788387;79;21134;-84
2022/10/18 04:37:42;;;;;;;25.05;15.65;;;;;;;6.14;74.05;102493.77;1788987;78;20915;-83
2022/10/18 04:40:10;;;;;;;25.17;16.30;;;;;;;6.16;73.96;102489.41;1790923;79;21487;-84
2022/10/18 04:42:37;;;;;;;18.12;13.48;;;;;;;6.19;73.92;102487.61;1788392;79;20940;-86
2022/10/18 04:45:06;;;;;;;24.27;13.88;;;;;;;6.22;73.88;102491.91;1788684;78;20923;-86
2022/10/18 04:47:34;;;;;;;34.50;19.67;;;;;;;6.24;73.89;102497.97;1788531;78;21850;-86
2022/10/18 04:50:01;;;;;;;36.88;18.27;;;;;;;6.29;74.00;102499.22;1777575;80;21492;-85
2022/10/18 04:52:27;;;;;;;27.55;16.02;;;;;;;6.33;74.03;102502.22;1788628;78;20923;-86
2022/10/18 04:54:54;;;;;;;26.40;16.62;;;;;;;6.38;74.01;102505.62;1788477;78;20845;-86
2022/10/18 05:00:24;;;;;;;28.75;14.68;;;;;;;6.46;73.69;102512.05;1749422;77;22320;-86
2022/10/18 05:02:57;;;;;;;20.48;15.35;;;;;;;6.47;73.45;102510.75;1802214;79;20938;-87
2022/10/18 05:05:26;;;;;;;19.82;15.38;;;;;;;6.48;73.31;102513.76;1801883;79;20873;-85
2022/10/18 05:07:53;;;;;;;22.98;14.98;;;;;;;6.50;73.20;102513.75;1802188;79;21029;-87
2022/10/18 05:10:19;;;;;;;22.98;15.28;;;;;;;6.51;73.24;102511.09;1802232;79;20961;-85
2022/10/18 05:12:47;;;;;;;26.48;15.60;;;;;;;6.56;73.37;102521.50;1802064;79;21135;-85
2022/10/18 05:15:13;;;;;;;24.37;14.58;;;;;;;6.63;73.52;102520.08;1801958;79;21299;-84
2022/10/18 05:17:41;;;;;;;26.12;16.25;;;;;;;6.74;73.52;102515.18;1802023;79;20928;-84
2022/10/18 05:20:10;;;;;;;21.85;15.18;;;;;;;6.83;73.52;102511.14;1802046;79;20991;-84
2022/10/18 05:22:38;;;;;;;27.42;16.20;;;;;;;6.93;73.50;102513.16;1802552;79;20880;-84
2022/10/18 05:25:07;;;;;;;26.05;16.02;;;;;;;7.07;73.30;102509.93;1802035;79;21116;-84
2022/10/18 05:27:33;;;;;;;21.75;14.95;;;;;;;7.24;73.31;102512.27;1801960;79;20880;-86
2022/10/18 05:30:00;;;;;;;24.02;16.00;;;;;;;7.51;73.05;102522.70;1802214;79;20860;-87
2022/10/18 05:32:27;;;;;;;36.20;18.05;;;;;;;8.05;73.29;102520.47;1802109;79;20964;-85
2022/10/18 05:34:54;;;;;;;36.20;19.02;;;;;;;8.89;72.69;102518.77;1802166;79;20869;-86
2022/10/18 05:37:20;;;;;;;25.95;15.55;;;;;;;9.91;70.54;102519.73;1802327;79;21387;-84
2022/10/18 05:39:47;;;;;;;21.75;15.10;;;;;;;10.96;67.79;102522.02;1802229;79;21441;-85
2022/10/18 05:42:13;;;;;;;29.42;16.02;;;;;;;11.95;64.79;102523.62;1801940;79;20869;-85
2022/10/18 05:44:40;;;;;;;21.40;14.87;;;;;;;12.90;61.65;102523.19;1802121;79;20861;-84
2022/10/18 05:47:07;;;;;;;19.60;13.50;;;;;;;13.75;59.03;102518.83;1802228;79;20967;-85
2022/10/18 05:49:34;;;;;;;29.40;16.27;;;;;;;14.54;56.74;102524.57;1802161;79;21214;-84
2022/10/18 05:52:01;;;;;;;27.32;15.23;;;;;;;15.23;54.36;102526.16;1801906;79;20873;-85
2022/10/18 05:54:29;;;;;;;27.93;17.17;;;;;;;15.92;52.63;102519.20;1802293;79;20905;-84
2022/10/18 05:56:55;;;;;;;30.68;21.30;;;;;;;16.58;50.80;102525.80;1802052;79;21377;-86
2022/10/18 05:59:22;;;;;;;22.35;16.02;;;;;;;17.23;49.22;102525.30;1802964;79;20869;-86
2022/10/18 06:01:49;;;;;;;21.10;13.28;;;;;;;17.88;47.24;102521.92;1806388;79;21262;-87
2022/10/18 06:04:16;;;;;;;19.80;13.48;;;;;;;18.52;45.33;102523.73;1754330;79;20952;-83
2022/10/18 06:06:45;;;;;;;21.07;13.98;;;;;;;19.11;43.59;102519.51;1754367;79;20948;-83
2022/10/18 06:09:11;;;;;;;16.07;11.57;;;;;;;19.65;42.20;102522.11;1755909;79;20924;-86
2022/10/18 06:11:39;;;;;;;17.57;12.55;;;;;;;20.13;41.34;102526.83;1754954;82;20928;-86
2022/10/18 06:14:06;;;;;;;15.23;11.88;;;;;;;20.50;40.18;102529.06;1754224;82;21096;-85
2022/10/18 06:16:33;;;;;;;17.98;11.70;;;;;;;20.89;39.45;102524.48;1753740;81;20896;-86
2022/10/18 06:19:01;;;;;;;17.55;13.25;;;;;;;21.24;37.97;102522.84;1754075;82;20936;-83
2022/10/18 06:21:27;;;;;;;20.17;12.93;;;;;;;21.24;37.18;102521.51;1745737;82;20936;-87
2022/10/18 06:23:57;;;;;;;16.02;13.10;;;;;;;20.90;37.35;102520.02;1720778;83;20917;-86
2022/10/18 06:26:25;;;;;;;21.77;14.40;;;;;;;20.39;37.55;102520.98;1753206;82;21237;-87
2022/10/18 06:28:52;;;;;;;20.80;14.28;;;;;;;19.82;37.91;102523.62;1752398;82;20888;-84
2022/10/18 06:31:20;;;;;;;21.70;13.65;;;;;;;19.26;38.55;102517.17;1752557;82;20999;-87
2022/10/18 06:33:48;;;;;;;21.70;13.93;;;;;;;18.76;39.37;102523.95;1752712;82;21011;-87
2022/10/18 06:36:21;;;;;;;21.52;13.90;;;;;;;18.26;40.10;102523.19;1752333;82;20920;-87
2022/10/18 06:45:05;;;;;;;16.20;12.37;;;;;;;16.83;42.50;102515.20;1681895;84;20947;-87
2022/10/18 06:47:36;;;;;;;17.48;12.50;;;;;;;16.41;43.36;102519.68;1712677;83;20950;-87
2022/10/18 06:50:04;;;;;;;17.07;12.30;;;;;;;16.09;44.00;102508.56;1686806;83;21041;-87
2022/10/18 06:52:34;;;;;;;23.18;16.17;;;;;;;15.86;44.45;102514.22;1713362;83;21064;-86
2022/10/18 06:58:15;;;;;;;16.95;11.90;;;;;;;15.39;45.68;102502.94;1717926;80;21515;-84
2022/10/18 07:00:44;;;;;;;19.65;11.57;;;;;;;15.14;46.06;102501.51;1761386;81;20935;-83
2022/10/18 07:03:14;;;;;;;17.40;10.15;;;;;;;14.99;46.42;102496.97;1781524;80;20943;-82
2022/10/18 07:05:40;;;;;;;17.67;11.28;;;;;;;14.73;46.65;102485.86;1762028;81;21350;-84
2022/10/18 07:08:07;;;;;;;16.05;11.08;;;;;;;14.65;47.23;102480.95;1762276;81;20892;-82
2022/10/18 07:10:35;;;;;;;20.92;10.78;;;;;;;14.65;47.23;102480.95;1782052;80;20883;-84
2022/10/18 07:13:05;;;;;;;16.45;11.18;;;;;;;14.50;47.68;102477.67;1782032;80;20935;-82
2022/10/18 07:15:40;;;;;;;18.25;11.35;;;;;;;14.43;47.41;102477.58;1762605;81;20919;-85
2022/10/18 07:18:06;;;;;;;13.22;9.95;;;;;;;14.43;47.41;102477.58;1759290;81;21407;-83
2022/10/18 07:20:33;;;;;;;16.15;10.90;;;;;;;14.38;47.88;102476.91;1762312;81;20999;-83
2022/10/18 07:23:01;;;;;;;16.52;10.30;;;;;;;14.35;48.38;102467.83;1782968;80;20954;-81
2022/10/18 07:25:28;;;;;;;14.80;9.58;;;;;;;14.31;48.59;102465.78;1763429;81;20931;-83
2022/10/18 07:27:56;;;;;;;15.50;9.03;;;;;;;14.27;48.55;102461.13;1763320;81;20899;-83
2022/10/18 07:30:23;;;;;;;12.65;8.65;;;;;;;14.26;48.96;102459.39;1763109;81;21153;-84
2022/10/18 07:32:51;;;;;;;10.23;9.08;;;;;;;14.25;48.90;102459.02;1783124;80;20955;-82
2022/10/18 07:35:19;;;;;;;10.55;7.72;;;;;;;14.25;48.96;102455.50;1750437;82;20884;-82
2022/10/18 07:37:46;;;;;;;12.30;8.85;;;;;;;14.27;49.02;102454.53;1782664;80;20880;-82
2022/10/18 07:40:13;;;;;;;17.15;8.10;;;;;;;14.40;49.10;102456.11;1763019;81;20947;-83
2022/10/18 07:42:39;;;;;;;11.03;7.67;;;;;;;14.84;48.82;102445.72;1762220;81;21125;-84
2022/10/18 07:45:07;;;;;;;19.98;8.95;;;;;;;15.64;47.79;102445.20;1781093;80;20943;-83
2022/10/18 07:47:34;;;;;;;10.88;7.55;;;;;;;16.65;46.29;102433.59;1780866;80;21396;-81
2022/10/18 07:50:01;;;;;;;9.73;7.62;;;;;;;17.70;43.60;102434.11;1781202;80;20931;-82
2022/10/18 07:52:28;;;;;;;11.45;6.97;;;;;;;18.72;41.69;102424.13;1781550;80;20891;-81
2022/10/18 07:54:55;;;;;;;10.35;6.83;;;;;;;19.77;39.96;102426.41;1781935;79;21107;-83
2022/10/18 07:57:22;;;;;;;9.13;7.22;;;;;;;20.74;38.02;102424.77;1781593;79;20895;-82
2022/10/18 07:59:55;;;;;;;14.28;9.08;;;;;;;21.61;36.53;102419.94;1772307;80;20876;-82
2022/10/18 08:02:17;;;;;;;13.05;7.00;;;;;;;22.42;35.17;102411.29;1767843;81;20943;-83
2022/10/18 08:04:44;;;;;;;10.23;6.80;;;;;;;23.14;33.63;102410.63;1768093;81;20833;-82
2022/10/18 08:07:10;;;;;;;8.43;7.45;;;;;;;23.75;32.71;102411.22;1768712;81;21316;-81
2022/10/18 08:09:38;;;;;;;11.08;7.15;;;;;;;24.35;31.40;102401.87;1768285;80;20927;-83
2022/10/18 08:12:05;;;;;;;10.43;6.97;;;;;;;24.90;30.71;102401.33;1768803;80;20872;-82
2022/10/18 08:14:31;;;;;;;10.45;6.20;;;;;;;25.43;29.65;102396.33;1768368;80;21432;-82
2022/10/18 08:16:59;;;;;;;11.10;6.85;;;;;;;25.92;29.03;102405.53;1768259;80;21523;-82
2022/10/18 08:19:26;;;;;;;10.45;6.10;;;;;;;26.42;28.05;102403.74;1768288;81;21901;-83
2022/10/18 08:21:54;;;;;;;8.40;5.87;;;;;;;26.90;26.93;102402.17;1768451;81;20971;-82
2022/10/18 08:24:21;;;;;;;7.67;5.45;;;;;;;27.29;26.48;102407.53;1768403;81;21006;-82
2022/10/18 08:26:49;;;;;;;9.98;5.15;;;;;;;27.62;25.97;102409.58;1768166;81;20895;-82
2022/10/18 08:29:16;;;;;;;8.90;5.95;;;;;;;27.89;25.37;102412.59;1768395;80;20852;-82
2022/10/18 08:31:43;;;;;;;7.60;5.72;;;;;;;28.18;25.17;102414.88;1768425;81;21176;-82
2022/10/18 08:34:09;;;;;;;10.98;5.83;;;;;;;28.52;24.84;102407.20;1767928;81;20860;-81
2022/10/18 08:38:40;;;;;;;7.70;5.40;;;;;;;29.10;23.61;102391.37;1801197;78;22721;-81
2022/10/18 08:41:38;;;;;;;8.43;5.03;;;;;;;29.38;23.13;102388.77;1784468;80;20928;-82
2022/10/18 08:44:29;;;;;;;10.20;5.10;;;;;;;29.58;22.89;102393.27;1791973;80;21083;-83
2022/10/18 08:47:05;;;;;;;7.45;4.62;;;;;;;29.83;22.32;102389.97;1772579;79;20998;-81
2022/10/18 08:49:43;;;;;;;8.40;4.95;;;;;;;29.97;22.39;102387.88;1761167;79;20911;-83
2022/10/18 08:52:37;;;;;;;6.10;4.97;;;;;;;30.14;22.26;102389.96;1776657;80;21072;-82
2022/10/18 08:55:27;;;;;;;9.40;5.10;;;;;;;30.26;22.20;102384.97;1784026;79;20871;-84
2022/10/18 08:57:56;;;;;;;12.37;4.75;;;;;;;30.35;21.87;102375.83;1783944;79;21158;-86
2022/10/18 09:00:25;;;;;;;7.08;3.90;;;;;;;30.22;21.65;102379.09;1779181;80;20942;-83
2022/10/18 09:03:24;;;;;;;10.38;4.45;;;;;;;30.11;21.67;102374.93;1771994;80;20888;-82
2022/10/18 09:06:04;;;;;;;5.33;3.47;;;;;;;30.12;21.90;102375.25;1775884;79;21022;-83
2022/10/18 09:08:56;;;;;;;6.67;3.72;;;;;;;30.10;21.67;102363.79;1776949;80;20985;-82
2022/10/18 09:11:48;;;;;;;6.92;4.85;;;;;;;29.97;21.73;102362.17;1762168;80;21173;-82
2022/10/18 09:14:35;;;;;;;7.50;4.20;;;;;;;29.74;21.87;102359.41;1788075;79;21109;-83
2022/10/18 09:17:25;;;;;;;10.32;4.85;;;;;;;29.56;22.25;102344.76;1711039;82;20909;-83
2022/10/18 09:20:10;;;;;;;8.38;4.12;;;;;;;29.45;22.33;102341.09;1707186;82;21397;-83
2022/10/18 09:23:04;;;;;;;10.90;6.87;;;;;;;29.51;22.07;102343.10;1708170;83;20920;-81
2022/10/18 09:26:05;;;;;;;8.60;4.47;;;;;;;29.66;21.88;102340.48;1705291;82;21154;-85
2022/10/18 09:28:46;;;;;;;6.42;4.00;;;;;;;29.91;21.86;102337.19;1705353;82;20989;-85
2022/10/18 09:31:33;;;;;;;7.83;3.70;;;;;;;30.24;21.47;102328.82;1707508;83;20933;-82
2022/10/18 09:34:07;;;;;;;7.35;4.22;;;;;;;30.54;20.76;102327.09;1707463;83;20957;-83
2022/10/18 09:36:36;;;;;;;5.45;3.42;;;;;;;30.79;20.73;102320.92;1685317;83;21038;-82
2022/10/18 09:39:14;;;;;;;4.33;3.52;;;;;;;31.02;20.09;102320.06;1704497;83;22142;-84
2022/10/18 09:41:54;;;;;;;9.98;3.52;;;;;;;31.28;19.76;102322.28;1710584;83;20874;-83
2022/10/18 09:44:37;;;;;;;5.25;3.27;;;;;;;31.55;19.74;102317.57;1709897;83;20950;-83
2022/10/18 09:47:20;;;;;;;;;;;;;;;31.78;19.21;102304.37;1710555;80;20917;-83
2022/10/18 09:50:04;;;;;;;7.83;3.67;;;;;;;31.94;18.47;102297.84;1709107;80;20133;-83
2022/10/18 09:52:41;;;;;;;11.45;10.38;;;;;;;32.05;18.44;102296.00;1714583;82;21145;-83
2022/10/18 09:55:18;;;;;;;9.15;7.80;;;;;;;32.19;17.98;102280.18;1771365;78;21010;-83
2022/10/18 09:57:55;;;;;;;20.40;18.32;;;;;;;32.27;17.60;102281.91;1792728;80;21032;-82
2022/10/18 10:00:32;;;;;;;10.98;7.37;;;;;;;32.31;17.75;102279.12;1788727;80;20903;-83
2022/10/18 10:03:00;;;;;;;8.60;4.62;;;;;;;32.22;17.48;102264.02;1782303;79;20927;-82
2022/10/18 10:05:27;;;;;;;4.50;3.65;;;;;;;32.16;17.44;102267.50;1764614;80;21157;-85
2022/10/18 10:08:01;;;;;;;8.10;4.50;;;;;;;32.14;17.54;102259.55;1776049;79;20975;-84
2022/10/18 10:10:36;;;;;;;5.77;3.23;;;;;;;32.12;16.62;102261.61;1794072;80;21554;-83
2022/10/18 10:13:21;;;;;;;7.67;4.78;;;;;;;32.04;17.02;102254.98;1793633;80;21730;-84
2022/10/18 10:16:00;;;;;;;10.15;6.42;;;;;;;32.09;17.09;102248.44;1774860;80;20895;-83
2022/10/18 10:18:36;;;;;;;7.72;5.28;;;;;;;32.19;16.94;102251.67;1739782;80;21186;-83
2022/10/18 10:21:11;;;;;;;6.05;3.58;;;;;;;32.30;16.99;102243.48;1782995;80;21018;-85
2022/10/18 10:23:51;;;;;;;7.17;4.40;;;;;;;32.47;16.87;102237.25;1779771;80;21100;-85
2022/10/18 10:26:28;;;;;;;5.62;4.75;;;;;;;32.61;16.50;102240.39;1790787;80;20900;-83
2022/10/18 10:28:55;;;;;;;4.22;3.83;;;;;;;32.68;16.70;102240.95;1772597;80;21019;-84
2022/10/18 10:31:29;;;;;;;6.22;2.77;;;;;;;32.72;16.83;102235.45;1772783;79;22010;-84
2022/10/18 10:34:06;;;;;;;3.85;3.08;;;;;;;32.68;16.54;102227.38;1773597;80;20978;-83
2022/10/18 10:36:34;;;;;;;5.67;3.75;;;;;;;32.43;16.68;102215.06;1777398;79;21537;-82
2022/10/18 10:39:06;;;;;;;5.97;3.05;;;;;;;32.11;16.87;102205.66;1739298;80;21436;-83
2022/10/18 10:41:32;;;;;;;6.10;3.77;;;;;;;31.68;16.93;102207.52;1773973;80;20966;-82
2022/10/18 10:44:04;;;;;;;5.12;3.80;;;;;;;31.22;17.35;102213.27;1775686;80;21138;-82
2022/10/18 10:46:36;;;;;;;8.28;4.58;;;;;;;30.74;18.14;102202.81;1786488;80;20903;-83
2022/10/18 10:49:03;;;;;;;7.92;3.85;;;;;;;30.25;17.77;102200.08;1777774;79;20986;-82
2022/10/18 10:51:37;;;;;;;5.47;3.35;;;;;;;29.71;18.01;102188.88;1787755;80;20970;-84
2022/10/18 10:54:20;;;;;;;6.97;4.55;;;;;;;29.17;18.18;102186.17;1786672;80;20965;-84
2022/10/18 10:57:12;;;;;;;9.55;4.70;;;;;;;28.61;19.12;102184.81;1774751;80;22016;-82
2022/10/18 10:59:50;;;;;;;60.78;55.20;;;;;;;28.00;19.68;102179.50;1784317;79;20884;-82
2022/10/18 11:02:30;;;;;;;56.00;50.67;;;;;;;27.21;20.13;102154.29;1786668;80;21070;-82
2022/10/18 11:05:22;;;;;;;16.23;14.28;;;;;;;26.87;20.72;102175.32;1769558;79;20887;-83
2022/10/18 11:07:54;;;;;;;20.08;17.73;;;;;;;26.44;21.37;102170.88;1781250;80;20916;-84
2022/10/18 11:10:24;;;;;;;34.88;29.77;;;;;;;25.97;22.12;102166.67;1761263;79;21166;-83
2022/10/18 11:13:03;;;;;;;47.05;42.15;;;;;;;25.55;22.45;102153.84;1771855;79;20974;-83
2022/10/18 11:15:36;;;;;;;38.50;34.38;;;;;;;25.18;22.41;102160.62;1776469;79;20849;-82
2022/10/18 11:18:21;;;;;;;10.48;8.85;;;;;;;24.80;22.95;102157.15;1781186;80;20955;-82
2022/10/18 11:21:07;;;;;;;11.97;9.50;;;;;;;24.48;23.68;102146.34;1771165;80;20974;-85
2022/10/18 11:23:41;;;;;;;15.08;9.23;;;;;;;24.16;24.14;102140.78;1791252;80;21270;-83
2022/10/18 11:26:13;;;;;;;10.70;7.70;;;;;;;23.88;24.93;102133.62;1773219;80;20919;-83
2022/10/18 11:29:12;;;;;;;9.90;7.35;;;;;;;23.59;25.20;102131.80;1787761;80;20956;-82
2022/10/18 11:32:12;;;;;;;8.75;5.12;;;;;;;23.37;25.48;102135.58;1794699;80;21117;-84
2022/10/18 11:35:12;;;;;;;7.30;6.33;;;;;;;23.10;25.47;102126.84;1781774;80;21420;-82
2022/10/18 11:38:04;;;;;;;8.60;4.80;;;;;;;22.85;25.74;102120.97;1787551;80;21163;-84
2022/10/18 11:40:42;;;;;;;6.22;5.20;;;;;;;22.58;26.34;102120.73;1760906;79;21128;-83
2022/10/18 11:43:30;;;;;;;8.88;4.30;;;;;;;22.31;26.48;102122.98;1772154;80;20901;-83
2022/10/18 11:46:26;;;;;;;7.03;4.12;;;;;;;22.13;26.03;102116.52;1776244;80;20935;-83
2022/10/18 11:49:24;;;;;;;9.30;5.33;;;;;;;21.93;25.54;102115.05;1774411;80;21349;-84
2022/10/18 11:52:43;;;;;;;11.50;5.37;;;;;;;21.73;25.68;102105.20;1793055;80;21038;-84
2022/10/18 11:55:26;;;;;;;16.23;14.53;;;;;;;21.53;25.73;102099.70;1790927;79;20904;-83
2022/10/18 11:58:24;;;;;;;91.45;68.35;;;;;;;21.33;26.17;102093.30;1762140;80;20974;-83